Accueil
METAR-TAF:

METAR-TAF

Aéroports :

Aéroport de Reggio de Calabre

Reggio de Calabre, Italie

latitude: 38-04N, longitude: 015-39E, altitude: 11 m

Observation

Le bulletin a été fait il y a 37 minutes, à 06:50 UTC
Vent 7 kt de nord/nord-est
Température 12°C
Humidité 54%
Pression 1024 hPa
Visibilité 10 km ou plus
pas de nuages en-dessous de 1500 mètres et pas de cumulonimbus.

METAR: LICR 210650Z 02007KT CAVOK 12/03 Q1024

Heure: 08:27 (07:27 UTC)

Prévision

Le bulletin a été fait il y a 2 heures et 27 minutes, à 05:00 UTC
Prévision valable du 21 à 06 UTC au 22 à 06 UTC
Vent 12 kt de nord
Visibilité 10 km ou plus
Quelques nuages à une hauteur de 3000 ft

TAF: LICR 210500Z 2106/2206 35012KT 9999 FEW030

Observations et prévisions météorologiques de plus de 4000 aéroports (messages METAR et TAF).

Les stations disponibles sont représentées par des disques jaunes et rouges sur la carte.

Passer la souris dessus pour voir le nom de la station.

Cliquer dessus pour voir les observations et prévisions météorologiques.

Pour changer de carte: cliquez sur les boutons verts avec une croix noire pour zoomer, sur le bouton vert avec un tiret pour effectuer un zoom arrière, ou sur les flèches vertes pour les cartes adjacentes.


METAR-TAF: